createdAt,value
2022-09-10T00:02:07.415Z,3.23
2022-09-10T00:04:34.361Z,1.37
2022-09-10T00:07:01.167Z,2.43
2022-09-10T00:09:27.813Z,2.70
2022-09-10T00:11:54.834Z,2.97
2022-09-10T00:14:23.459Z,2.77
2022-09-10T00:16:50.325Z,4.50
2022-09-10T00:19:17.443Z,2.47
2022-09-10T00:21:44.702Z,2.33
2022-09-10T00:24:11.434Z,1.70
2022-09-10T00:26:39.687Z,1.70
2022-09-10T00:29:08.985Z,5.17
2022-09-10T00:31:36.373Z,2.87
2022-09-10T00:34:04.008Z,3.10
2022-09-10T00:36:33.213Z,3.00
2022-09-10T00:39:03.252Z,3.10
2022-09-10T00:41:30.343Z,1.43
2022-09-10T00:43:59.819Z,1.67
2022-09-10T00:46:26.323Z,2.80
2022-09-10T00:48:56.555Z,2.07
2022-09-10T00:51:24.285Z,2.13
2022-09-10T00:53:51.922Z,1.40
2022-09-10T00:56:18.515Z,3.83
2022-09-10T00:58:46.516Z,2.33
2022-09-10T01:01:13.688Z,2.93
2022-09-10T01:03:41.156Z,2.83
2022-09-10T01:06:08.020Z,1.53
2022-09-10T01:08:34.637Z,2.43
2022-09-10T01:11:10.211Z,2.00
2022-09-10T01:14:10.083Z,4.30
2022-09-10T01:17:11.079Z,3.73
2022-09-10T01:19:41.353Z,6.10
2022-09-10T01:22:08.094Z,5.27
2022-09-10T01:24:45.229Z,3.97
2022-09-10T01:27:41.267Z,3.60
2022-09-10T01:30:12.577Z,5.63
2022-09-10T01:33:10.747Z,4.60
2022-09-10T01:36:02.377Z,6.17
2022-09-10T01:38:36.937Z,4.33
2022-09-10T01:41:03.601Z,3.43
2022-09-10T01:43:30.542Z,3.43
2022-09-10T01:46:03.365Z,4.30
2022-09-10T01:48:49.515Z,3.37
2022-09-10T01:51:58.219Z,5.40
2022-09-10T01:54:46.506Z,3.93
2022-09-10T01:57:28.252Z,2.43
2022-09-10T01:59:57.283Z,4.07
2022-09-10T02:02:31.127Z,3.30
2022-09-10T02:04:58.815Z,3.53
2022-09-10T02:07:26.759Z,2.93
2022-09-10T02:09:54.965Z,3.73
2022-09-10T02:12:22.709Z,2.90
2022-09-10T02:14:55.254Z,4.27
2022-09-10T02:17:23.928Z,4.40
2022-09-10T02:19:54.288Z,4.93
2022-09-10T02:22:23.842Z,5.20
2022-09-10T02:24:51.102Z,2.93
2022-09-10T02:27:17.679Z,5.73
2022-09-10T02:29:44.356Z,3.63
2022-09-10T02:32:10.938Z,4.83
2022-09-10T02:34:37.535Z,3.33
2022-09-10T02:37:04.259Z,2.07
2022-09-10T02:39:31.231Z,2.13
2022-09-10T02:42:02.020Z,2.77
2022-09-10T02:44:28.968Z,3.03
2022-09-10T02:46:55.750Z,3.83
2022-09-10T02:49:22.394Z,5.20
2022-09-10T02:51:50.611Z,5.97
2022-09-10T02:54:19.986Z,4.60
2022-09-10T02:56:48.573Z,5.50
2022-09-10T02:59:15.107Z,5.10
2022-09-10T03:01:41.783Z,3.73
2022-09-10T03:04:08.418Z,3.50
2022-09-10T03:06:35.357Z,3.47
2022-09-10T03:09:02.244Z,5.13
2022-09-10T03:11:28.932Z,3.43
2022-09-10T03:13:55.961Z,2.10
2022-09-10T03:16:24.011Z,4.60
2022-09-10T03:18:52.119Z,3.07
2022-09-10T03:21:21.807Z,4.03
2022-09-10T03:23:51.647Z,4.27
2022-09-10T03:26:20.189Z,6.43
2022-09-10T03:28:47.170Z,4.60
2022-09-10T03:31:14.609Z,4.30
2022-09-10T03:33:41.660Z,6.40
2022-09-10T03:36:09.729Z,7.13
2022-09-10T03:38:36.408Z,5.47
2022-09-10T03:41:03.230Z,6.37
2022-09-10T03:43:29.978Z,4.97
2022-09-10T03:45:56.841Z,6.93
2022-09-10T03:48:23.536Z,5.00
2022-09-10T03:50:52.977Z,4.47
2022-09-10T03:53:20.736Z,6.13
2022-09-10T03:55:48.864Z,7.00
2022-09-10T03:58:16.191Z,9.53
2022-09-10T04:00:43.092Z,5.47
2022-09-10T04:03:11.100Z,4.63
2022-09-10T04:05:43.702Z,8.87
2022-09-10T04:08:11.223Z,6.60
2022-09-10T04:10:38.768Z,7.90
2022-09-10T04:13:05.450Z,10.17
2022-09-10T04:15:32.044Z,6.10
2022-09-10T04:17:58.673Z,6.83
2022-09-10T04:20:25.756Z,8.23
2022-09-10T04:22:52.826Z,9.47
2022-09-10T04:25:20.494Z,8.90
2022-09-10T04:27:47.361Z,8.23
2022-09-10T04:30:14.117Z,10.30
2022-09-10T04:32:40.765Z,7.60
2022-09-10T04:35:07.998Z,8.33
2022-09-10T04:37:35.110Z,6.90
2022-09-10T04:40:02.097Z,10.10
2022-09-10T04:42:28.749Z,8.00
2022-09-10T04:44:55.314Z,6.87
2022-09-10T04:47:21.893Z,6.77
2022-09-10T04:49:48.464Z,8.27
2022-09-10T04:52:17.185Z,8.83
2022-09-10T04:54:43.856Z,12.10
2022-09-10T04:57:10.584Z,13.90
2022-09-10T04:59:38.393Z,9.27
2022-09-10T05:02:06.652Z,11.43
2022-09-10T05:04:33.511Z,7.17
2022-09-10T05:07:00.075Z,7.97
2022-09-10T05:09:31.164Z,7.90
2022-09-10T05:11:58.402Z,6.90
2022-09-10T05:14:25.617Z,9.80
2022-09-10T05:16:52.487Z,8.77
2022-09-10T05:19:19.166Z,6.70
2022-09-10T05:21:45.986Z,9.40
2022-09-10T05:24:12.690Z,6.20
2022-09-10T05:26:40.094Z,9.90
2022-09-10T05:29:06.784Z,7.13
2022-09-10T05:31:35.367Z,8.40
2022-09-10T05:34:02.068Z,7.80
2022-09-10T05:36:29.288Z,11.53
2022-09-10T05:38:55.853Z,8.87
2022-09-10T05:41:23.665Z,10.10
2022-09-10T05:43:50.327Z,5.77
2022-09-10T05:46:17.220Z,8.67
2022-09-10T05:48:44.013Z,8.17
2022-09-10T05:51:10.771Z,9.40
2022-09-10T05:53:38.307Z,6.87
2022-09-10T05:56:05.919Z,9.97
2022-09-10T05:58:34.592Z,6.03
2022-09-10T06:01:01.904Z,5.53
2022-09-10T06:03:28.517Z,6.73
2022-09-10T06:05:55.807Z,8.23
2022-09-10T06:08:23.208Z,7.67
2022-09-10T06:11:01.188Z,6.93
2022-09-10T06:13:27.856Z,7.33
2022-09-10T06:15:54.518Z,5.83
2022-09-10T06:18:21.100Z,6.43
2022-09-10T06:20:48.324Z,5.83
2022-09-10T06:23:16.806Z,7.53
2022-09-10T06:25:44.592Z,4.70
2022-09-10T06:28:12.701Z,5.97
2022-09-10T06:30:39.566Z,6.50
2022-09-10T06:33:06.186Z,5.10
2022-09-10T06:35:33.397Z,7.50
2022-09-10T06:38:00.058Z,5.20
2022-09-10T06:40:29.802Z,6.87
2022-09-10T06:42:56.321Z,6.60
2022-09-10T06:45:22.883Z,6.33
2022-09-10T06:50:37.032Z,8.47
2022-09-10T06:53:03.779Z,7.57
2022-09-10T06:55:30.484Z,6.87
2022-09-10T06:57:59.763Z,3.90
2022-09-10T07:00:26.350Z,6.13
2022-09-10T07:02:53.082Z,4.87
2022-09-10T07:05:19.663Z,5.13
2022-09-10T07:07:46.450Z,7.90
2022-09-10T07:10:12.983Z,4.43
2022-09-10T07:12:39.631Z,7.17
2022-09-10T07:15:06.674Z,6.90
2022-09-10T07:17:35.932Z,7.17
2022-09-10T07:20:02.944Z,5.57
2022-09-10T07:22:29.578Z,5.10
2022-09-10T07:24:56.231Z,5.93
2022-09-10T07:27:22.829Z,6.60
2022-09-10T07:29:49.668Z,3.90
2022-09-10T07:32:16.329Z,7.43
2022-09-10T07:34:43.220Z,4.73
2022-09-10T07:37:09.974Z,10.33
2022-09-10T07:39:36.557Z,5.27
2022-09-10T07:42:03.176Z,4.50
2022-09-10T07:44:29.730Z,6.80
2022-09-10T07:46:56.314Z,7.00
2022-09-10T07:49:22.929Z,7.13
2022-09-10T07:51:59.098Z,6.37
2022-09-10T07:54:28.474Z,5.60
2022-09-10T07:56:55.184Z,5.20
2022-09-10T07:59:21.723Z,8.30
2022-09-10T08:01:48.503Z,7.47
2022-09-10T08:04:15.133Z,6.73
2022-09-10T08:06:42.054Z,5.27
2022-09-10T08:09:09.017Z,6.17
2022-09-10T08:11:35.725Z,7.17
2022-09-10T08:14:02.387Z,7.27
2022-09-10T08:16:29.224Z,7.50
2022-09-10T08:18:57.336Z,6.43
2022-09-10T08:21:29.164Z,6.10
2022-09-10T08:23:56.283Z,5.90
2022-09-10T08:26:24.407Z,5.37
2022-09-10T08:28:52.113Z,5.77
2022-09-10T08:31:18.726Z,5.70
2022-09-10T08:33:53.418Z,6.37
2022-09-10T08:36:21.935Z,7.80
2022-09-10T08:38:49.420Z,6.67
2022-09-10T08:41:28.464Z,8.47
2022-09-10T08:43:58.794Z,7.87
2022-09-10T08:46:27.851Z,7.23
2022-09-10T08:49:09.111Z,7.10
2022-09-10T08:51:46.352Z,6.27
2022-09-10T08:54:19.945Z,9.33
2022-09-10T08:56:47.757Z,8.20
2022-09-10T08:59:25.442Z,6.70
2022-09-10T09:01:56.750Z,8.97
2022-09-10T09:04:40.639Z,9.17
2022-09-10T09:07:16.027Z,8.20
2022-09-10T09:09:43.167Z,8.83
2022-09-10T09:12:33.636Z,9.27
2022-09-10T09:15:14.270Z,6.67
2022-09-10T09:17:43.986Z,10.40
2022-09-10T09:20:18.143Z,11.23
2022-09-10T09:22:51.111Z,6.93
2022-09-10T09:25:50.957Z,8.73
2022-09-10T09:28:41.850Z,8.13
2022-09-10T09:31:13.417Z,6.67
2022-09-10T09:33:41.235Z,7.50
2022-09-10T09:36:08.323Z,11.33
2022-09-10T09:38:41.386Z,9.20
2022-09-10T09:41:17.697Z,10.27
2022-09-10T09:44:05.695Z,9.33
2022-09-10T09:46:32.936Z,10.97
2022-09-10T09:49:01.007Z,12.40
2022-09-10T09:51:30.786Z,13.20
2022-09-10T09:54:25.745Z,14.90
2022-09-10T09:56:47.727Z,13.20
2022-09-10T09:59:32.107Z,18.37
2022-09-10T10:02:10.804Z,21.00
2022-09-10T10:04:41.986Z,17.03
2022-09-10T10:07:09.002Z,13.07
2022-09-10T10:09:40.587Z,16.00
2022-09-10T10:12:14.486Z,12.33
2022-09-10T10:14:42.556Z,12.50
2022-09-10T10:17:30.318Z,11.77
2022-09-10T10:19:59.199Z,11.57
2022-09-10T10:22:27.881Z,10.80
2022-09-10T10:24:54.917Z,11.27
2022-09-10T10:27:35.661Z,13.47
2022-09-10T10:30:13.480Z,13.93
2022-09-10T10:32:42.071Z,12.33
2022-09-10T10:35:08.797Z,15.97
2022-09-10T10:37:44.055Z,11.80
2022-09-10T10:40:30.380Z,12.30
2022-09-10T10:43:02.949Z,13.70
2022-09-10T10:45:42.680Z,11.03
2022-09-10T10:48:29.087Z,11.50
2022-09-10T10:51:09.892Z,11.53
2022-09-10T10:53:48.834Z,11.00
2022-09-10T10:56:27.829Z,12.67
2022-09-10T10:59:29.976Z,11.60
2022-09-10T11:02:39.427Z,11.37
2022-09-10T11:05:27.997Z,11.13
2022-09-10T11:07:54.924Z,11.87
2022-09-10T11:10:29.730Z,12.97
2022-09-10T11:13:09.566Z,11.87
2022-09-10T11:15:47.567Z,11.97
2022-09-10T11:18:36.793Z,11.27
2022-09-10T11:21:12.117Z,10.83
2022-09-10T11:24:16.798Z,11.40
2022-09-10T11:26:54.268Z,10.70
2022-09-10T11:29:40.539Z,13.00
2022-09-10T11:32:07.444Z,11.30
2022-09-10T11:34:41.329Z,11.97
2022-09-10T11:37:13.885Z,12.03
2022-09-10T11:39:45.136Z,10.70
2022-09-10T11:42:29.326Z,10.70
2022-09-10T11:45:20.202Z,11.57
2022-09-10T11:48:02.150Z,11.20
2022-09-10T11:50:51.354Z,11.13
2022-09-10T11:53:20.661Z,11.10
2022-09-10T11:56:05.175Z,12.33
2022-09-10T11:58:50.651Z,11.37
2022-09-10T12:01:45.280Z,12.63
2022-09-10T12:04:40.436Z,12.80
2022-09-10T12:07:14.540Z,13.87
2022-09-10T12:10:15.130Z,13.20
2022-09-10T12:12:42.132Z,13.93
2022-09-10T12:15:12.863Z,12.57
2022-09-10T12:17:41.742Z,11.80
2022-09-10T12:20:14.768Z,12.57
2022-09-10T12:22:42.178Z,12.67
2022-09-10T12:25:24.305Z,11.67
2022-09-10T12:28:01.708Z,12.77
2022-09-10T12:30:29.232Z,10.93
2022-09-10T12:33:00.762Z,11.50
2022-09-10T12:35:34.252Z,11.73
2022-09-10T12:38:39.938Z,11.43
2022-09-10T12:41:11.119Z,10.80
2022-09-10T12:43:40.941Z,11.63
2022-09-10T12:46:08.044Z,13.23
2022-09-10T12:48:43.856Z,15.87
2022-09-10T12:51:13.729Z,12.10
2022-09-10T12:54:03.599Z,12.40
2022-09-10T12:57:09.674Z,12.03
2022-09-10T12:59:45.476Z,13.87
2022-09-10T13:02:31.961Z,11.53
2022-09-10T13:05:06.506Z,12.10
2022-09-10T13:07:37.389Z,13.60
2022-09-10T13:10:22.060Z,12.50
2022-09-10T13:12:55.367Z,13.40
2022-09-10T13:15:25.075Z,14.30
2022-09-10T13:17:51.692Z,12.00
2022-09-10T13:20:21.234Z,13.77
2022-09-10T13:23:01.625Z,12.30
2022-09-10T13:25:34.963Z,12.70
2022-09-10T13:28:01.950Z,12.50
2022-09-10T13:30:29.143Z,12.33
2022-09-10T13:33:06.060Z,12.23
2022-09-10T13:36:10.694Z,12.63
2022-09-10T13:39:03.114Z,11.43
2022-09-10T13:41:49.333Z,16.93
2022-09-10T13:44:34.559Z,22.03
2022-09-10T13:47:09.808Z,15.47
2022-09-10T13:49:49.108Z,12.37
2022-09-10T13:52:16.848Z,10.33
2022-09-10T13:54:52.304Z,10.60
2022-09-10T13:57:32.079Z,11.03
2022-09-10T14:00:17.762Z,10.50
2022-09-10T14:02:47.578Z,10.37
2022-09-10T14:05:42.144Z,10.13
2022-09-10T14:08:20.450Z,11.43
2022-09-10T14:10:56.367Z,9.43
2022-09-10T14:13:39.179Z,13.83
2022-09-10T14:16:09.381Z,11.23
2022-09-10T14:18:45.234Z,14.87
2022-09-10T14:21:13.359Z,11.63
2022-09-10T14:23:44.224Z,11.47
2022-09-10T14:26:12.160Z,11.00
2022-09-10T14:28:55.881Z,11.87
2022-09-10T14:31:27.700Z,11.30
2022-09-10T14:33:55.980Z,10.53
2022-09-10T14:36:33.561Z,11.40
2022-09-10T14:39:16.629Z,10.30
2022-09-10T14:41:44.186Z,10.53
2022-09-10T14:44:23.124Z,10.00
2022-09-10T14:46:59.829Z,9.83
2022-09-10T14:49:31.749Z,9.83
2022-09-10T14:51:58.746Z,11.33
2022-09-10T14:54:26.651Z,10.10
2022-09-10T14:56:54.309Z,10.27
2022-09-10T14:59:27.435Z,10.53
2022-09-10T15:01:54.895Z,9.83
2022-09-10T15:04:23.842Z,9.83
2022-09-10T15:06:54.750Z,10.20
2022-09-10T15:09:22.090Z,10.20
2022-09-10T15:12:05.592Z,10.37
2022-09-10T15:14:33.480Z,9.70
2022-09-10T15:17:03.068Z,9.83
2022-09-10T15:19:29.691Z,9.70
2022-09-10T15:21:57.427Z,10.37
2022-09-10T15:24:24.565Z,11.00
2022-09-10T15:26:51.369Z,9.23
2022-09-10T15:29:18.255Z,9.23
2022-09-10T15:31:45.326Z,7.50
2022-09-10T15:34:12.585Z,7.30
2022-09-10T15:36:40.791Z,8.07
2022-09-10T15:39:08.409Z,9.10
2022-09-10T15:41:35.033Z,10.03
2022-09-10T15:44:06.050Z,10.53
2022-09-10T15:46:32.634Z,11.60
2022-09-10T15:48:59.628Z,12.00
2022-09-10T15:51:34.845Z,13.37
2022-09-10T15:54:04.900Z,13.83
2022-09-10T15:56:31.877Z,12.80
2022-09-10T15:58:58.895Z,12.53
2022-09-10T16:01:28.093Z,11.93
2022-09-10T16:03:57.022Z,12.20
2022-09-10T16:06:25.769Z,13.10
2022-09-10T16:08:57.401Z,12.63
2022-09-10T16:11:24.959Z,12.50
2022-09-10T16:13:51.597Z,15.33
2022-09-10T16:16:20.425Z,16.40
2022-09-10T16:18:47.729Z,13.90
2022-09-10T16:21:18.605Z,15.53
2022-09-10T16:23:46.812Z,15.53
2022-09-10T16:26:16.809Z,16.47
2022-09-10T16:28:56.607Z,15.63
2022-09-10T16:31:28.974Z,14.53
2022-09-10T16:33:58.696Z,14.17
2022-09-10T16:36:26.274Z,12.23
2022-09-10T16:38:56.624Z,12.87
2022-09-10T16:41:25.100Z,11.40
2022-09-10T16:43:52.540Z,12.33
2022-09-10T16:46:19.547Z,12.47
2022-09-10T16:48:46.676Z,12.30
2022-09-10T16:51:15.816Z,12.97
2022-09-10T16:53:44.428Z,12.30
2022-09-10T16:56:12.851Z,9.20
2022-09-10T16:58:41.433Z,9.97
2022-09-10T17:01:09.480Z,9.33
2022-09-10T17:03:42.255Z,9.67
2022-09-10T17:06:20.254Z,10.77
2022-09-10T17:08:47.643Z,9.57
2022-09-10T17:11:15.635Z,10.17
2022-09-10T17:13:42.812Z,10.60
2022-09-10T17:16:16.688Z,10.83
2022-09-10T17:18:44.778Z,10.97
2022-09-10T17:21:11.449Z,10.70
2022-09-10T17:23:38.070Z,10.70
2022-09-10T17:26:06.519Z,13.63
2022-09-10T17:28:33.258Z,13.23
2022-09-10T17:31:00.773Z,11.47
2022-09-10T17:33:27.956Z,10.40
2022-09-10T17:36:00.541Z,10.20
2022-09-10T17:38:28.229Z,9.53
2022-09-10T17:41:01.528Z,8.77
2022-09-10T17:43:30.155Z,9.07
2022-09-10T17:45:56.847Z,8.97
2022-09-10T17:48:27.655Z,8.73
2022-09-10T17:50:55.038Z,9.80
2022-09-10T17:53:21.722Z,8.80
2022-09-10T17:55:48.342Z,9.10
2022-09-10T17:58:16.212Z,9.03
2022-09-10T18:00:47.601Z,9.70
2022-09-10T18:03:17.731Z,8.90
2022-09-10T18:05:45.719Z,10.47
2022-09-10T18:08:12.691Z,10.93
2022-09-10T18:10:39.631Z,12.23
2022-09-10T18:13:08.352Z,11.47
2022-09-10T18:15:40.963Z,12.10
2022-09-10T18:18:09.138Z,14.23
2022-09-10T18:20:35.839Z,12.17
2022-09-10T18:23:02.623Z,10.80
2022-09-10T18:25:30.550Z,11.03
2022-09-10T18:27:57.932Z,10.30
2022-09-10T18:30:28.581Z,10.93
2022-09-10T18:32:55.400Z,10.87
2022-09-10T18:35:22.096Z,10.57
2022-09-10T18:37:50.153Z,10.93
2022-09-10T18:40:17.754Z,10.80
2022-09-10T18:42:46.738Z,10.50
2022-09-10T18:45:13.880Z,10.80
2022-09-10T18:47:44.900Z,10.07
2022-09-10T18:50:13.416Z,13.80
2022-09-10T18:52:40.225Z,11.40
2022-09-10T18:55:07.299Z,10.53
2022-09-10T18:57:33.924Z,11.83
2022-09-10T19:00:01.183Z,11.30
2022-09-10T19:02:27.808Z,12.43
2022-09-10T19:05:10.780Z,12.97
2022-09-10T19:07:38.680Z,13.40
2022-09-10T19:10:10.014Z,13.27
2022-09-10T19:12:36.578Z,15.03
2022-09-10T19:15:03.467Z,13.93
2022-09-10T19:17:30.058Z,13.27
2022-09-10T19:19:56.598Z,13.53
2022-09-10T19:22:23.218Z,14.07
2022-09-10T19:24:55.882Z,11.97
2022-09-10T19:27:28.550Z,14.03
2022-09-10T19:30:47.750Z,13.67
2022-09-10T19:32:48.077Z,13.93
2022-09-10T19:35:17.220Z,13.30
2022-09-10T19:37:43.768Z,14.27
2022-09-10T19:40:12.033Z,13.80
2022-09-10T19:42:39.704Z,13.47
2022-09-10T19:45:10.059Z,12.97
2022-09-10T19:47:36.859Z,12.07
2022-09-10T19:50:03.651Z,13.33
2022-09-10T19:52:32.757Z,12.63
2022-09-10T19:55:00.440Z,14.00
2022-09-10T19:57:27.023Z,13.97
2022-09-10T19:59:53.601Z,13.93
2022-09-10T20:02:20.235Z,13.33
2022-09-10T20:04:46.859Z,12.97
2022-09-10T20:07:13.462Z,13.77
2022-09-10T20:09:40.273Z,13.43
2022-09-10T20:12:07.048Z,13.03
2022-09-10T20:14:33.651Z,13.17
2022-09-10T20:17:01.715Z,13.50
2022-09-10T20:19:29.356Z,13.27
2022-09-10T20:21:55.928Z,13.20
2022-09-10T20:24:23.548Z,12.27
2022-09-10T20:26:50.149Z,10.73
2022-09-10T20:29:18.336Z,9.97
2022-09-10T20:31:46.368Z,10.37
2022-09-10T20:34:19.685Z,9.90
2022-09-10T20:36:47.919Z,8.97
2022-09-10T20:39:16.446Z,9.87
2022-09-10T20:41:43.827Z,10.03
2022-09-10T20:44:15.317Z,9.50
2022-09-10T20:46:42.532Z,9.17
2022-09-10T20:49:11.114Z,9.00
2022-09-10T20:51:41.656Z,9.17
2022-09-10T20:54:11.696Z,9.07
2022-09-10T20:56:38.320Z,9.10
2022-09-10T20:59:04.886Z,11.23
2022-09-10T21:01:31.657Z,9.73
2022-09-10T21:03:59.609Z,9.20
2022-09-10T21:06:28.098Z,9.63
2022-09-10T21:08:58.029Z,9.37
2022-09-10T21:11:26.925Z,9.90
2022-09-10T21:13:55.708Z,9.57
2022-09-10T21:16:32.321Z,9.73
2022-09-10T21:19:02.195Z,9.50
2022-09-10T21:21:31.151Z,9.70
2022-09-10T21:24:00.232Z,9.07
2022-09-10T21:26:29.246Z,8.80
2022-09-10T21:29:02.269Z,9.37
2022-09-10T21:31:30.016Z,9.70
2022-09-10T21:34:02.444Z,9.93
2022-09-10T21:36:31.470Z,10.40
2022-09-10T21:39:00.240Z,9.53
2022-09-10T21:41:31.779Z,10.27
2022-09-10T21:44:00.125Z,10.83
2022-09-10T21:46:27.522Z,10.17
2022-09-10T21:48:54.207Z,10.10
2022-09-10T21:51:21.325Z,9.63
2022-09-10T21:53:48.615Z,10.80
2022-09-10T21:56:16.622Z,10.23
2022-09-10T21:58:45.229Z,11.17
2022-09-10T22:01:24.313Z,9.50
2022-09-10T22:03:52.774Z,10.93
2022-09-10T22:06:23.191Z,12.17
2022-09-10T22:08:58.189Z,10.77
2022-09-10T22:11:39.394Z,10.50
2022-09-10T22:14:08.024Z,10.47
2022-09-10T22:16:35.899Z,9.80
2022-09-10T22:19:06.211Z,10.67
2022-09-10T22:21:32.881Z,11.30
2022-09-10T22:23:59.654Z,10.20
2022-09-10T22:26:28.557Z,10.77
2022-09-10T22:28:57.198Z,10.87
2022-09-10T22:31:26.657Z,11.03
2022-09-10T22:34:04.812Z,10.57
2022-09-10T22:36:34.161Z,13.50
2022-09-10T22:39:06.562Z,11.30
2022-09-10T22:41:34.896Z,10.70
2022-09-10T22:44:02.368Z,11.50
2022-09-10T22:46:29.596Z,10.70
2022-09-10T22:48:56.518Z,10.70
2022-09-10T22:51:29.108Z,11.23
2022-09-10T22:53:56.857Z,10.53
2022-09-10T22:56:26.295Z,11.57
2022-09-10T22:58:53.974Z,10.87
2022-09-10T23:01:23.078Z,11.30
2022-09-10T23:03:50.282Z,11.57
2022-09-10T23:06:22.484Z,11.03
2022-09-10T23:08:51.736Z,11.93
2022-09-10T23:11:26.913Z,11.97
2022-09-10T23:13:57.492Z,11.10
2022-09-10T23:16:30.067Z,12.50
2022-09-10T23:18:58.324Z,12.87
2022-09-10T23:21:26.267Z,13.00
2022-09-10T23:23:58.229Z,12.50
2022-09-10T23:26:25.608Z,12.43
2022-09-10T23:28:52.707Z,12.43
2022-09-10T23:31:21.827Z,12.33
2022-09-10T23:33:53.642Z,13.73
2022-09-10T23:36:20.626Z,14.13
2022-09-10T23:38:47.447Z,12.97
2022-09-10T23:41:16.044Z,12.87
2022-09-10T23:43:43.813Z,12.53
2022-09-10T23:46:10.997Z,13.50
2022-09-10T23:48:38.023Z,13.50
2022-09-10T23:51:06.373Z,12.67
2022-09-10T23:53:35.732Z,15.60
2022-09-10T23:56:02.951Z,13.43
2022-09-10T23:58:30.022Z,17.03
